Time;durP1;ratioP1;P1;durP2;ratioP2;P2;SDS_P1;SDS_P2;PMS_P1;PMS_P2;Temp;Humidity;BMP_temperature;BMP_pressure;BME280_temperature;BME280_humidity;BME280_pressure;Samples;Min_cycle;Max_cycle;Signal;HPM_P1;HPM_P2
2022/01/10 00:00:50;;;;;;;3.95;2.6;;;;;;;0.84;96.86426;94468.33;;;;
2022/01/10 00:01:54;;;;;;;3.95;2.6;;;;;;;0.84;96.86426;94468.33;;;;
2022/01/10 00:02:55;;;;;;;3.95;2.6;;;;;;;0.84;96.86426;94468.33;;;;
2022/01/10 00:03:58;;;;;;;3.95;2.6;;;;;;;0.84;96.86426;94468.33;;;;
2022/01/10 00:04:59;;;;;;;3.95;2.6;;;;;;;0.84;96.86426;94468.33;;;;
2022/01/10 00:05:59;;;;;;;3.95;2.6;;;;;;;0.84;96.86426;94468.33;;;;
2022/01/10 00:07:00;;;;;;;3.95;2.6;;;;;;;0.84;96.86426;94468.33;;;;
2022/01/10 00:08:04;;;;;;;3.95;2.6;;;;;;;0.84;96.86426;94468.33;;;;
2022/01/10 00:09:05;;;;;;;3.95;2.6;;;;;;;0.84;96.86426;94468.33;;;;
2022/01/10 00:10:06;;;;;;;3.95;2.6;;;;;;;0.84;96.86426;94468.33;;;;
2022/01/10 00:11:08;;;;;;;4.9;3.1;;;;;;;0.76;97.00293;94479.94;;;;
2022/01/10 00:12:08;;;;;;;4.9;3.1;;;;;;;0.76;97.00293;94479.94;;;;
2022/01/10 00:13:10;;;;;;;4.9;3.1;;;;;;;0.76;97.00293;94479.94;;;;
2022/01/10 00:14:11;;;;;;;4.9;3.1;;;;;;;0.76;97.00293;94479.94;;;;
2022/01/10 00:15:12;;;;;;;4.9;3.1;;;;;;;0.76;97.00293;94479.94;;;;
2022/01/10 00:16:14;;;;;;;4.9;3.1;;;;;;;0.76;97.00293;94479.94;;;;
2022/01/10 00:17:14;;;;;;;4.9;3.1;;;;;;;0.76;97.00293;94479.94;;;;
2022/01/10 00:18:15;;;;;;;4.9;3.1;;;;;;;0.76;97.00293;94479.94;;;;
2022/01/10 00:19:15;;;;;;;4.9;3.1;;;;;;;0.76;97.00293;94479.94;;;;
2022/01/10 00:20:16;;;;;;;4.9;3.1;;;;;;;0.76;97.00293;94479.94;;;;
2022/01/10 00:21:19;;;;;;;4.9;3.1;;;;;;;0.76;97.00293;94479.94;;;;
2022/01/10 00:22:20;;;;;;;4.05;3.25;;;;;;;0.69;97.25586;94477.75;;;;
2022/01/10 00:23:20;;;;;;;4.05;3.25;;;;;;;0.69;97.25586;94477.75;;;;
2022/01/10 00:24:21;;;;;;;4.05;3.25;;;;;;;0.69;97.25586;94477.75;;;;
2022/01/10 00:25:21;;;;;;;4.05;3.25;;;;;;;0.69;97.25586;94477.75;;;;
2022/01/10 00:26:23;;;;;;;4.05;3.25;;;;;;;0.69;97.25586;94477.75;;;;
2022/01/10 00:27:24;;;;;;;4.05;3.25;;;;;;;0.69;97.25586;94477.75;;;;
2022/01/10 00:28:24;;;;;;;4.05;3.25;;;;;;;0.69;97.25586;94477.75;;;;
2022/01/10 00:29:25;;;;;;;4.05;3.25;;;;;;;0.69;97.25586;94477.75;;;;
2022/01/10 00:30:25;;;;;;;4.05;3.25;;;;;;;0.69;97.25586;94477.75;;;;
2022/01/10 00:31:26;;;;;;;4.05;3.25;;;;;;;0.69;97.25586;94477.75;;;;
2022/01/10 00:32:26;;;;;;;6.5;3.750001;;;;;;;0.69;97.58789;94483.98;;;;
2022/01/10 00:33:27;;;;;;;6.5;3.750001;;;;;;;0.69;97.58789;94483.98;;;;
2022/01/10 00:34:27;;;;;;;6.5;3.750001;;;;;;;0.69;97.58789;94483.98;;;;
2022/01/10 00:35:28;;;;;;;6.5;3.750001;;;;;;;0.69;97.58789;94483.98;;;;
2022/01/10 00:36:28;;;;;;;6.5;3.750001;;;;;;;0.69;97.58789;94483.98;;;;
2022/01/10 00:37:29;;;;;;;6.5;3.750001;;;;;;;0.69;97.58789;94483.98;;;;
2022/01/10 00:38:30;;;;;;;6.5;3.750001;;;;;;;0.69;97.58789;94483.98;;;;
2022/01/10 00:39:30;;;;;;;6.5;3.750001;;;;;;;0.69;97.58789;94483.98;;;;
2022/01/10 00:40:31;;;;;;;6.5;3.750001;;;;;;;0.69;97.58789;94483.98;;;;
2022/01/10 00:41:31;;;;;;;6.5;3.750001;;;;;;;0.69;97.58789;94483.98;;;;
2022/01/10 00:42:32;;;;;;;6.5;3.750001;;;;;;;0.69;97.58789;94483.98;;;;
2022/01/10 00:43:33;;;;;;;6.15;3.45;;;;;;;0.73;97.68945;94483.91;;;;
2022/01/10 00:44:39;;;;;;;6.15;3.45;;;;;;;0.73;97.68945;94483.91;;;;
2022/01/10 00:45:39;;;;;;;6.15;3.45;;;;;;;0.73;97.68945;94483.91;;;;
2022/01/10 00:46:40;;;;;;;6.15;3.45;;;;;;;0.73;97.68945;94483.91;;;;
2022/01/10 00:47:40;;;;;;;6.15;3.45;;;;;;;0.73;97.68945;94483.91;;;;
2022/01/10 00:48:41;;;;;;;6.15;3.45;;;;;;;0.73;97.68945;94483.91;;;;
2022/01/10 00:49:42;;;;;;;6.15;3.45;;;;;;;0.73;97.68945;94483.91;;;;
2022/01/10 00:50:42;;;;;;;6.15;3.45;;;;;;;0.73;97.68945;94483.91;;;;
2022/01/10 00:51:43;;;;;;;6.15;3.45;;;;;;;0.73;97.68945;94483.91;;;;
2022/01/10 00:52:43;;;;;;;6.15;3.45;;;;;;;0.73;97.68945;94483.91;;;;
2022/01/10 00:53:47;;;;;;;5.05;3.25;;;;;;;0.79;97.72363;94484.05;;;;
2022/01/10 00:54:48;;;;;;;5.05;3.25;;;;;;;0.79;97.72363;94484.05;;;;
2022/01/10 00:55:48;;;;;;;5.05;3.25;;;;;;;0.79;97.72363;94484.05;;;;
2022/01/10 00:56:49;;;;;;;5.05;3.25;;;;;;;0.79;97.72363;94484.05;;;;
2022/01/10 00:57:49;;;;;;;5.05;3.25;;;;;;;0.79;97.72363;94484.05;;;;
2022/01/10 00:58:50;;;;;;;5.05;3.25;;;;;;;0.79;97.72363;94484.05;;;;
2022/01/10 00:59:51;;;;;;;5.05;3.25;;;;;;;0.79;97.72363;94484.05;;;;
2022/01/10 01:00:51;;;;;;;5.05;3.25;;;;;;;0.79;97.72363;94484.05;;;;
2022/01/10 01:01:52;;;;;;;5.05;3.25;;;;;;;0.79;97.72363;94484.05;;;;
2022/01/10 01:02:52;;;;;;;5.05;3.25;;;;;;;0.79;97.72363;94484.05;;;;
2022/01/10 01:03:53;;;;;;;5.05;3.25;;;;;;;0.79;97.72363;94484.05;;;;
2022/01/10 01:04:54;;;;;;;4.5;2.4;;;;;;;0.67;97.44824;94479.37;;;;
2022/01/10 01:05:54;;;;;;;4.5;2.4;;;;;;;0.67;97.44824;94479.37;;;;
2022/01/10 01:06:55;;;;;;;4.5;2.4;;;;;;;0.67;97.44824;94479.37;;;;
2022/01/10 01:07:58;;;;;;;4.5;2.4;;;;;;;0.67;97.44824;94479.37;;;;
2022/01/10 01:09:03;;;;;;;4.5;2.4;;;;;;;0.67;97.44824;94479.37;;;;
2022/01/10 01:10:06;;;;;;;4.5;2.4;;;;;;;0.67;97.44824;94479.37;;;;
2022/01/10 01:12:21;;;;;;;4.5;2.4;;;;;;;0.67;97.44824;94479.37;;;;
2022/01/10 01:13:27;;;;;;;4.5;2.4;;;;;;;0.67;97.44824;94479.37;;;;
2022/01/10 01:14:48;;;;;;;4.5;2.4;;;;;;;0.67;97.44824;94479.37;;;;
2022/01/10 01:16:07;;;;;;;3.400001;2.3;;;;;;;0.45;97.40918;94501.72;;;;
2022/01/10 01:17:11;;;;;;;3.400001;2.3;;;;;;;0.45;97.40918;94501.72;;;;
2022/01/10 01:18:19;;;;;;;3.400001;2.3;;;;;;;0.45;97.40918;94501.72;;;;
2022/01/10 01:20:03;;;;;;;3.400001;2.3;;;;;;;0.45;97.40918;94501.72;;;;
2022/01/10 01:26:09;;;;;;;5.75;2.5;;;;;;;0.27;97.62598;94520.37;;;;
2022/01/10 01:27:09;;;;;;;5.75;2.5;;;;;;;0.27;97.62598;94520.37;;;;
2022/01/10 01:28:10;;;;;;;5.75;2.5;;;;;;;0.27;97.62598;94520.37;;;;
2022/01/10 01:29:10;;;;;;;5.75;2.5;;;;;;;0.27;97.62598;94520.37;;;;
2022/01/10 01:30:14;;;;;;;5.75;2.5;;;;;;;0.27;97.62598;94520.37;;;;
2022/01/10 01:31:15;;;;;;;5.75;2.5;;;;;;;0.27;97.62598;94520.37;;;;
2022/01/10 01:32:15;;;;;;;5.75;2.5;;;;;;;0.27;97.62598;94520.37;;;;
2022/01/10 01:33:17;;;;;;;5.75;2.5;;;;;;;0.27;97.62598;94520.37;;;;
2022/01/10 01:34:17;;;;;;;5.75;2.5;;;;;;;0.27;97.62598;94520.37;;;;
2022/01/10 01:35:24;;;;;;;5.75;2.5;;;;;;;0.27;97.62598;94520.37;;;;
2022/01/10 01:36:26;;;;;;;2.8;2.15;;;;;;;0.16;97.93164;94537.72;;;;
2022/01/10 01:37:27;;;;;;;2.8;2.15;;;;;;;0.16;97.93164;94537.72;;;;
2022/01/10 01:38:27;;;;;;;2.8;2.15;;;;;;;0.16;97.93164;94537.72;;;;
2022/01/10 01:39:30;;;;;;;2.8;2.15;;;;;;;0.16;97.93164;94537.72;;;;
2022/01/10 01:40:32;;;;;;;2.8;2.15;;;;;;;0.16;97.93164;94537.72;;;;
2022/01/10 01:41:40;;;;;;;2.8;2.15;;;;;;;0.16;97.93164;94537.72;;;;
2022/01/10 01:42:43;;;;;;;2.8;2.15;;;;;;;0.16;97.93164;94537.72;;;;
2022/01/10 01:43:43;;;;;;;2.8;2.15;;;;;;;0.16;97.93164;94537.72;;;;
2022/01/10 01:44:44;;;;;;;2.8;2.15;;;;;;;0.16;97.93164;94537.72;;;;
2022/01/10 01:45:48;;;;;;;2.8;2.15;;;;;;;0.16;97.93164;94537.72;;;;
2022/01/10 01:46:49;;;;;;;2.8;2.15;;;;;;;0.16;97.93164;94537.72;;;;
2022/01/10 01:47:50;;;;;;;3.15;2.25;;;;;;;0.19;98.29297;94545.7;;;;
2022/01/10 01:48:51;;;;;;;3.15;2.25;;;;;;;0.19;98.29297;94545.7;;;;
2022/01/10 01:49:54;;;;;;;3.15;2.25;;;;;;;0.19;98.29297;94545.7;;;;
2022/01/10 01:50:55;;;;;;;3.15;2.25;;;;;;;0.19;98.29297;94545.7;;;;
2022/01/10 01:51:55;;;;;;;3.15;2.25;;;;;;;0.19;98.29297;94545.7;;;;
2022/01/10 01:52:56;;;;;;;3.15;2.25;;;;;;;0.19;98.29297;94545.7;;;;
2022/01/10 01:53:56;;;;;;;3.15;2.25;;;;;;;0.19;98.29297;94545.7;;;;
2022/01/10 01:54:57;;;;;;;3.15;2.25;;;;;;;0.19;98.29297;94545.7;;;;
2022/01/10 01:55:58;;;;;;;3.15;2.25;;;;;;;0.19;98.29297;94545.7;;;;
2022/01/10 01:56:58;;;;;;;3.15;2.25;;;;;;;0.19;98.29297;94545.7;;;;
2022/01/10 01:58:00;;;;;;;3.75;2.2;;;;;;;0.27;98.14648;94566.3;;;;
2022/01/10 01:59:01;;;;;;;3.75;2.2;;;;;;;0.27;98.14648;94566.3;;;;
2022/01/10 02:00:02;;;;;;;3.75;2.2;;;;;;;0.27;98.14648;94566.3;;;;
2022/01/10 02:01:04;;;;;;;3.75;2.2;;;;;;;0.27;98.14648;94566.3;;;;
2022/01/10 02:02:07;;;;;;;3.75;2.2;;;;;;;0.27;98.14648;94566.3;;;;
2022/01/10 02:03:07;;;;;;;3.75;2.2;;;;;;;0.27;98.14648;94566.3;;;;
2022/01/10 02:04:08;;;;;;;3.75;2.2;;;;;;;0.27;98.14648;94566.3;;;;
2022/01/10 02:05:08;;;;;;;3.75;2.2;;;;;;;0.27;98.14648;94566.3;;;;
2022/01/10 02:06:09;;;;;;;3.75;2.2;;;;;;;0.27;98.14648;94566.3;;;;
2022/01/10 02:07:10;;;;;;;3.75;2.2;;;;;;;0.27;98.14648;94566.3;;;;
2022/01/10 02:08:11;;;;;;;3.75;2.2;;;;;;;0.27;98.14648;94566.3;;;;
2022/01/10 02:09:14;;;;;;;3.75;2.4;;;;;;;0.33;98.0332;94573.6;;;;
2022/01/10 02:10:15;;;;;;;3.75;2.4;;;;;;;0.33;98.0332;94573.6;;;;
2022/01/10 02:11:15;;;;;;;3.75;2.4;;;;;;;0.33;98.0332;94573.6;;;;
2022/01/10 02:12:16;;;;;;;3.75;2.4;;;;;;;0.33;98.0332;94573.6;;;;
2022/01/10 02:13:17;;;;;;;3.75;2.4;;;;;;;0.33;98.0332;94573.6;;;;
2022/01/10 02:14:18;;;;;;;3.75;2.4;;;;;;;0.33;98.0332;94573.6;;;;
2022/01/10 02:15:18;;;;;;;3.75;2.4;;;;;;;0.33;98.0332;94573.6;;;;
2022/01/10 02:16:33;;;;;;;3.75;2.4;;;;;;;0.33;98.0332;94573.6;;;;
2022/01/10 02:17:37;;;;;;;3.75;2.4;;;;;;;0.33;98.0332;94573.6;;;;
2022/01/10 02:18:41;;;;;;;3.75;2.4;;;;;;;0.33;98.0332;94573.6;;;;
2022/01/10 02:19:41;;;;;;;2.9;2.45;;;;;;;0.36;97.85547;94589.04;;;;
2022/01/10 02:20:52;;;;;;;2.9;2.45;;;;;;;0.36;97.85547;94589.04;;;;
2022/01/10 02:21:54;;;;;;;2.9;2.45;;;;;;;0.36;97.85547;94589.04;;;;
2022/01/10 02:22:54;;;;;;;2.9;2.45;;;;;;;0.36;97.85547;94589.04;;;;
2022/01/10 02:23:57;;;;;;;2.9;2.45;;;;;;;0.36;97.85547;94589.04;;;;
2022/01/10 02:24:57;;;;;;;2.9;2.45;;;;;;;0.36;97.85547;94589.04;;;;
2022/01/10 02:25:58;;;;;;;2.9;2.45;;;;;;;0.36;97.85547;94589.04;;;;
2022/01/10 02:26:59;;;;;;;2.9;2.45;;;;;;;0.36;97.85547;94589.04;;;;
2022/01/10 02:27:59;;;;;;;2.9;2.45;;;;;;;0.36;97.85547;94589.04;;;;
2022/01/10 02:29:00;;;;;;;2.9;2.45;;;;;;;0.36;97.85547;94589.04;;;;
2022/01/10 02:30:01;;;;;;;3.7;2.5;;;;;;;0.31;97.88574;94602.98;;;;
2022/01/10 02:31:01;;;;;;;3.7;2.5;;;;;;;0.31;97.88574;94602.98;;;;
2022/01/10 02:32:02;;;;;;;3.7;2.5;;;;;;;0.31;97.88574;94602.98;;;;
2022/01/10 02:33:03;;;;;;;3.7;2.5;;;;;;;0.31;97.88574;94602.98;;;;
2022/01/10 02:34:04;;;;;;;3.7;2.5;;;;;;;0.31;97.88574;94602.98;;;;
2022/01/10 02:35:05;;;;;;;3.7;2.5;;;;;;;0.31;97.88574;94602.98;;;;
2022/01/10 02:36:24;;;;;;;3.7;2.5;;;;;;;0.31;97.88574;94602.98;;;;
2022/01/10 02:37:24;;;;;;;3.7;2.5;;;;;;;0.31;97.88574;94602.98;;;;
2022/01/10 02:38:30;;;;;;;3.7;2.5;;;;;;;0.31;97.88574;94602.98;;;;
2022/01/10 02:39:31;;;;;;;3.7;2.5;;;;;;;0.31;97.88574;94602.98;;;;
2022/01/10 02:40:33;;;;;;;4.5;2.55;;;;;;;0.29;98.33789;94611.64;;;;
2022/01/10 02:41:33;;;;;;;4.5;2.55;;;;;;;0.29;98.33789;94611.64;;;;
2022/01/10 02:42:36;;;;;;;4.5;2.55;;;;;;;0.29;98.33789;94611.64;;;;
2022/01/10 02:43:37;;;;;;;4.5;2.55;;;;;;;0.29;98.33789;94611.64;;;;
2022/01/10 02:44:38;;;;;;;4.5;2.55;;;;;;;0.29;98.33789;94611.64;;;;
2022/01/10 02:45:38;;;;;;;4.5;2.55;;;;;;;0.29;98.33789;94611.64;;;;
2022/01/10 02:46:39;;;;;;;4.5;2.55;;;;;;;0.29;98.33789;94611.64;;;;
2022/01/10 02:47:40;;;;;;;4.5;2.55;;;;;;;0.29;98.33789;94611.64;;;;
2022/01/10 02:48:41;;;;;;;4.5;2.55;;;;;;;0.29;98.33789;94611.64;;;;
2022/01/10 02:49:41;;;;;;;4.5;2.55;;;;;;;0.29;98.33789;94611.64;;;;
2022/01/10 02:50:42;;;;;;;4.5;2.55;;;;;;;0.29;98.33789;94611.64;;;;
2022/01/10 02:51:42;;;;;;;4.5;2.85;;;;;;;0.31;98.68457;94620.65;;;;
2022/01/10 02:52:43;;;;;;;4.5;2.85;;;;;;;0.31;98.68457;94620.65;;;;
2022/01/10 02:53:44;;;;;;;4.5;2.85;;;;;;;0.31;98.68457;94620.65;;;;
2022/01/10 02:54:45;;;;;;;4.5;2.85;;;;;;;0.31;98.68457;94620.65;;;;
2022/01/10 02:55:45;;;;;;;4.5;2.85;;;;;;;0.31;98.68457;94620.65;;;;
2022/01/10 02:56:46;;;;;;;4.5;2.85;;;;;;;0.31;98.68457;94620.65;;;;
2022/01/10 02:57:48;;;;;;;4.5;2.85;;;;;;;0.31;98.68457;94620.65;;;;
2022/01/10 02:58:49;;;;;;;4.5;2.85;;;;;;;0.31;98.68457;94620.65;;;;
2022/01/10 02:59:49;;;;;;;4.5;2.85;;;;;;;0.31;98.68457;94620.65;;;;
2022/01/10 03:00:50;;;;;;;4.5;2.85;;;;;;;0.31;98.68457;94620.65;;;;
2022/01/10 03:01:50;;;;;;;3.4;2.900001;;;;;;;0.35;98.80469;94636.61;;;;
2022/01/10 03:02:53;;;;;;;3.4;2.900001;;;;;;;0.35;98.80469;94636.61;;;;
2022/01/10 03:03:54;;;;;;;3.4;2.900001;;;;;;;0.35;98.80469;94636.61;;;;
2022/01/10 03:04:55;;;;;;;3.4;2.900001;;;;;;;0.35;98.80469;94636.61;;;;
2022/01/10 03:05:55;;;;;;;3.4;2.900001;;;;;;;0.35;98.80469;94636.61;;;;
2022/01/10 03:06:56;;;;;;;3.4;2.900001;;;;;;;0.35;98.80469;94636.61;;;;
2022/01/10 03:07:58;;;;;;;3.4;2.900001;;;;;;;0.35;98.80469;94636.61;;;;
2022/01/10 03:09:04;;;;;;;3.4;2.900001;;;;;;;0.35;98.80469;94636.61;;;;
2022/01/10 03:10:05;;;;;;;3.4;2.900001;;;;;;;0.35;98.80469;94636.61;;;;
2022/01/10 03:11:07;;;;;;;3.4;2.900001;;;;;;;0.35;98.80469;94636.61;;;;
2022/01/10 03:12:07;;;;;;;3.4;2.900001;;;;;;;0.35;98.80469;94636.61;;;;
2022/01/10 03:13:08;;;;;;;4.45;2.75;;;;;;;0.47;99.01172;94645.62;;;;
2022/01/10 03:14:09;;;;;;;4.45;2.75;;;;;;;0.47;99.01172;94645.62;;;;
2022/01/10 03:15:10;;;;;;;4.45;2.75;;;;;;;0.47;99.01172;94645.62;;;;
2022/01/10 03:16:12;;;;;;;4.45;2.75;;;;;;;0.47;99.01172;94645.62;;;;
2022/01/10 03:17:12;;;;;;;4.45;2.75;;;;;;;0.47;99.01172;94645.62;;;;
2022/01/10 03:18:14;;;;;;;4.45;2.75;;;;;;;0.47;99.01172;94645.62;;;;
2022/01/10 03:19:14;;;;;;;4.45;2.75;;;;;;;0.47;99.01172;94645.62;;;;
2022/01/10 03:20:15;;;;;;;4.45;2.75;;;;;;;0.47;99.01172;94645.62;;;;
2022/01/10 03:21:19;;;;;;;4.45;2.75;;;;;;;0.47;99.01172;94645.62;;;;
2022/01/10 03:22:19;;;;;;;4.45;2.75;;;;;;;0.47;99.01172;94645.62;;;;
2022/01/10 03:23:20;;;;;;;3.4;2.6;;;;;;;0.59;98.72656;94659.72;;;;
2022/01/10 03:24:21;;;;;;;3.4;2.6;;;;;;;0.59;98.72656;94659.72;;;;
2022/01/10 03:25:21;;;;;;;3.4;2.6;;;;;;;0.59;98.72656;94659.72;;;;
2022/01/10 03:26:24;;;;;;;3.4;2.6;;;;;;;0.59;98.72656;94659.72;;;;
2022/01/10 03:27:24;;;;;;;3.4;2.6;;;;;;;0.59;98.72656;94659.72;;;;
2022/01/10 03:28:25;;;;;;;3.4;2.6;;;;;;;0.59;98.72656;94659.72;;;;
2022/01/10 03:29:25;;;;;;;3.4;2.6;;;;;;;0.59;98.72656;94659.72;;;;
2022/01/10 03:30:28;;;;;;;3.4;2.6;;;;;;;0.59;98.72656;94659.72;;;;
2022/01/10 03:31:29;;;;;;;3.4;2.6;;;;;;;0.59;98.72656;94659.72;;;;
2022/01/10 03:32:29;;;;;;;3.4;2.6;;;;;;;0.59;98.72656;94659.72;;;;
2022/01/10 03:33:30;;;;;;;3.4;2.6;;;;;;;0.59;98.72656;94659.72;;;;
2022/01/10 03:34:30;;;;;;;4.4;2.85;;;;;;;0.66;98.6377;94675.62;;;;
2022/01/10 03:35:31;;;;;;;4.4;2.85;;;;;;;0.66;98.6377;94675.62;;;;
2022/01/10 03:36:32;;;;;;;4.4;2.85;;;;;;;0.66;98.6377;94675.62;;;;
2022/01/10 03:37:32;;;;;;;4.4;2.85;;;;;;;0.66;98.6377;94675.62;;;;
2022/01/10 03:38:33;;;;;;;4.4;2.85;;;;;;;0.66;98.6377;94675.62;;;;
2022/01/10 03:39:33;;;;;;;4.4;2.85;;;;;;;0.66;98.6377;94675.62;;;;
2022/01/10 03:40:34;;;;;;;4.4;2.85;;;;;;;0.66;98.6377;94675.62;;;;
2022/01/10 03:41:35;;;;;;;4.4;2.85;;;;;;;0.66;98.6377;94675.62;;;;
2022/01/10 03:42:37;;;;;;;4.4;2.85;;;;;;;0.66;98.6377;94675.62;;;;
2022/01/10 03:43:37;;;;;;;4.4;2.85;;;;;;;0.66;98.6377;94675.62;;;;
2022/01/10 03:44:38;;;;;;;5.450001;3.299999;;;;;;;0.69;98.44727;94684.11;;;;
2022/01/10 03:45:38;;;;;;;5.450001;3.299999;;;;;;;0.69;98.44727;94684.11;;;;
2022/01/10 03:46:39;;;;;;;5.450001;3.299999;;;;;;;0.69;98.44727;94684.11;;;;
2022/01/10 03:47:40;;;;;;;5.450001;3.299999;;;;;;;0.69;98.44727;94684.11;;;;
2022/01/10 03:48:41;;;;;;;5.450001;3.299999;;;;;;;0.69;98.44727;94684.11;;;;
2022/01/10 03:49:41;;;;;;;5.450001;3.299999;;;;;;;0.69;98.44727;94684.11;;;;
2022/01/10 03:50:42;;;;;;;5.450001;3.299999;;;;;;;0.69;98.44727;94684.11;;;;
2022/01/10 03:51:42;;;;;;;5.450001;3.299999;;;;;;;0.69;98.44727;94684.11;;;;
2022/01/10 03:52:44;;;;;;;5.450001;3.299999;;;;;;;0.69;98.44727;94684.11;;;;
2022/01/10 03:53:44;;;;;;;5.450001;3.299999;;;;;;;0.69;98.44727;94684.11;;;;
2022/01/10 03:54:45;;;;;;;5.450001;3.299999;;;;;;;0.69;98.44727;94684.11;;;;
2022/01/10 03:55:45;;;;;;;6.1;3.65;;;;;;;0.7;98.73145;94682.2;;;;
2022/01/10 03:56:47;;;;;;;6.1;3.65;;;;;;;0.7;98.73145;94682.2;;;;
2022/01/10 03:57:47;;;;;;;6.1;3.65;;;;;;;0.7;98.73145;94682.2;;;;
2022/01/10 03:58:48;;;;;;;6.1;3.65;;;;;;;0.7;98.73145;94682.2;;;;
2022/01/10 03:59:48;;;;;;;6.1;3.65;;;;;;;0.7;98.73145;94682.2;;;;
2022/01/10 04:00:49;;;;;;;6.1;3.65;;;;;;;0.7;98.73145;94682.2;;;;
2022/01/10 04:01:51;;;;;;;6.1;3.65;;;;;;;0.7;98.73145;94682.2;;;;
2022/01/10 04:02:56;;;;;;;6.1;3.65;;;;;;;0.7;98.73145;94682.2;;;;
2022/01/10 04:03:57;;;;;;;6.1;3.65;;;;;;;0.7;98.73145;94682.2;;;;
2022/01/10 04:04:57;;;;;;;6.1;3.65;;;;;;;0.7;98.73145;94682.2;;;;
2022/01/10 04:05:58;;;;;;;6.800001;4.25;;;;;;;0.71;98.71289;94698.86;;;;
2022/01/10 04:06:59;;;;;;;6.800001;4.25;;;;;;;0.71;98.71289;94698.86;;;;
2022/01/10 04:07:59;;;;;;;6.800001;4.25;;;;;;;0.71;98.71289;94698.86;;;;
2022/01/10 04:09:00;;;;;;;6.800001;4.25;;;;;;;0.71;98.71289;94698.86;;;;
2022/01/10 04:10:00;;;;;;;6.800001;4.25;;;;;;;0.71;98.71289;94698.86;;;;
2022/01/10 04:11:02;;;;;;;6.800001;4.25;;;;;;;0.71;98.71289;94698.86;;;;
2022/01/10 04:12:03;;;;;;;6.800001;4.25;;;;;;;0.71;98.71289;94698.86;;;;
2022/01/10 04:13:04;;;;;;;6.800001;4.25;;;;;;;0.71;98.71289;94698.86;;;;
2022/01/10 04:14:04;;;;;;;6.800001;4.25;;;;;;;0.71;98.71289;94698.86;;;;
2022/01/10 04:15:05;;;;;;;6.800001;4.25;;;;;;;0.71;98.71289;94698.86;;;;
2022/01/10 04:16:06;;;;;;;6.800001;4.25;;;;;;;0.71;98.71289;94698.86;;;;
2022/01/10 04:17:07;;;;;;;7.700001;4.3;;;;;;;0.72;98.76953;94697.83;;;;
2022/01/10 04:18:08;;;;;;;7.700001;4.3;;;;;;;0.72;98.76953;94697.83;;;;
2022/01/10 04:19:08;;;;;;;7.700001;4.3;;;;;;;0.72;98.76953;94697.83;;;;
2022/01/10 04:20:09;;;;;;;7.700001;4.3;;;;;;;0.72;98.76953;94697.83;;;;
2022/01/10 04:21:10;;;;;;;7.700001;4.3;;;;;;;0.72;98.76953;94697.83;;;;
2022/01/10 04:22:11;;;;;;;7.700001;4.3;;;;;;;0.72;98.76953;94697.83;;;;
2022/01/10 04:23:12;;;;;;;7.700001;4.3;;;;;;;0.72;98.76953;94697.83;;;;
2022/01/10 04:24:15;;;;;;;7.700001;4.3;;;;;;;0.72;98.76953;94697.83;;;;
2022/01/10 04:25:16;;;;;;;7.700001;4.3;;;;;;;0.72;98.76953;94697.83;;;;
2022/01/10 04:26:16;;;;;;;7.700001;4.3;;;;;;;0.72;98.76953;94697.83;;;;
2022/01/10 04:27:17;;;;;;;8.6;4.7;;;;;;;0.73;98.88379;94712.36;;;;
2022/01/10 04:28:17;;;;;;;8.6;4.7;;;;;;;0.73;98.88379;94712.36;;;;
2022/01/10 04:29:18;;;;;;;8.6;4.7;;;;;;;0.73;98.88379;94712.36;;;;
2022/01/10 04:30:18;;;;;;;8.6;4.7;;;;;;;0.73;98.88379;94712.36;;;;
2022/01/10 04:31:20;;;;;;;8.6;4.7;;;;;;;0.73;98.88379;94712.36;;;;
2022/01/10 04:32:20;;;;;;;8.6;4.7;;;;;;;0.73;98.88379;94712.36;;;;
2022/01/10 04:33:21;;;;;;;8.6;4.7;;;;;;;0.73;98.88379;94712.36;;;;
2022/01/10 04:34:22;;;;;;;8.6;4.7;;;;;;;0.73;98.88379;94712.36;;;;
2022/01/10 04:35:22;;;;;;;8.6;4.7;;;;;;;0.73;98.88379;94712.36;;;;
2022/01/10 04:36:23;;;;;;;8.6;4.7;;;;;;;0.73;98.88379;94712.36;;;;
2022/01/10 04:37:23;;;;;;;8.6;4.7;;;;;;;0.73;98.88379;94712.36;;;;
2022/01/10 04:38:25;;;;;;;7.45;5.050001;;;;;;;0.77;99.05859;94727.34;;;;
2022/01/10 04:39:25;;;;;;;7.45;5.050001;;;;;;;0.77;99.05859;94727.34;;;;
2022/01/10 04:40:27;;;;;;;7.45;5.050001;;;;;;;0.77;99.05859;94727.34;;;;
2022/01/10 04:41:27;;;;;;;7.45;5.050001;;;;;;;0.77;99.05859;94727.34;;;;
2022/01/10 04:42:28;;;;;;;7.45;5.050001;;;;;;;0.77;99.05859;94727.34;;;;
2022/01/10 04:43:28;;;;;;;7.45;5.050001;;;;;;;0.77;99.05859;94727.34;;;;
2022/01/10 04:44:29;;;;;;;7.45;5.050001;;;;;;;0.77;99.05859;94727.34;;;;
2022/01/10 04:45:30;;;;;;;7.45;5.050001;;;;;;;0.77;99.05859;94727.34;;;;
2022/01/10 04:46:30;;;;;;;7.45;5.050001;;;;;;;0.77;99.05859;94727.34;;;;
2022/01/10 04:47:31;;;;;;;7.45;5.050001;;;;;;;0.77;99.05859;94727.34;;;;
2022/01/10 04:48:31;;;;;;;7.45;5.050001;;;;;;;0.77;99.05859;94727.34;;;;
2022/01/10 04:49:48;;;;;;;7.45;5.050001;;;;;;;0.77;99.05859;94727.34;;;;
2022/01/10 04:51:11;;;;;;;7.45;5.050001;;;;;;;0.77;99.05859;94727.34;;;;
2022/01/10 04:52:12;;;;;;;7.45;5.050001;;;;;;;0.77;99.05859;94727.34;;;;
2022/01/10 04:53:12;;;;;;;7.45;5.050001;;;;;;;0.77;99.05859;94727.34;;;;
2022/01/10 04:54:13;;;;;;;7.45;5.050001;;;;;;;0.77;99.05859;94727.34;;;;
2022/01/10 04:55:13;;;;;;;7.45;5.050001;;;;;;;0.77;99.05859;94727.34;;;;
2022/01/10 04:56:15;;;;;;;7.45;5.050001;;;;;;;0.77;99.05859;94727.34;;;;
2022/01/10 04:57:18;;;;;;;7.45;5.050001;;;;;;;0.77;99.05859;94727.34;;;;
2022/01/10 04:58:19;;;;;;;7.45;5.050001;;;;;;;0.77;99.05859;94727.34;;;;
2022/01/10 04:59:20;;;;;;;5.95;4.200001;;;;;;;0.89;99.04688;94762.09;;;;
2022/01/10 05:00:20;;;;;;;5.95;4.200001;;;;;;;0.89;99.04688;94762.09;;;;
2022/01/10 05:01:21;;;;;;;5.95;4.200001;;;;;;;0.89;99.04688;94762.09;;;;
2022/01/10 05:02:23;;;;;;;5.95;4.200001;;;;;;;0.89;99.04688;94762.09;;;;
2022/01/10 05:03:23;;;;;;;5.95;4.200001;;;;;;;0.89;99.04688;94762.09;;;;
2022/01/10 05:04:24;;;;;;;5.95;4.200001;;;;;;;0.89;99.04688;94762.09;;;;
2022/01/10 05:05:24;;;;;;;5.95;4.200001;;;;;;;0.89;99.04688;94762.09;;;;
2022/01/10 05:06:25;;;;;;;5.95;4.200001;;;;;;;0.89;99.04688;94762.09;;;;
2022/01/10 05:07:25;;;;;;;5.95;4.200001;;;;;;;0.89;99.04688;94762.09;;;;
2022/01/10 05:08:26;;;;;;;5.95;4.200001;;;;;;;0.89;99.04688;94762.09;;;;
2022/01/10 05:09:27;;;;;;;5.95;4.200001;;;;;;;0.89;99.04688;94762.09;;;;
2022/01/10 05:10:27;;;;;;;6.85;4.95;;;;;;;0.95;99.06055;94780.44;;;;
2022/01/10 05:11:28;;;;;;;6.85;4.95;;;;;;;0.95;99.06055;94780.44;;;;
2022/01/10 05:12:29;;;;;;;6.85;4.95;;;;;;;0.95;99.06055;94780.44;;;;
2022/01/10 05:13:29;;;;;;;6.85;4.95;;;;;;;0.95;99.06055;94780.44;;;;
2022/01/10 05:14:32;;;;;;;6.85;4.95;;;;;;;0.95;99.06055;94780.44;;;;
2022/01/10 05:15:32;;;;;;;6.85;4.95;;;;;;;0.95;99.06055;94780.44;;;;
2022/01/10 05:16:33;;;;;;;6.85;4.95;;;;;;;0.95;99.06055;94780.44;;;;
2022/01/10 05:17:33;;;;;;;6.85;4.95;;;;;;;0.95;99.06055;94780.44;;;;
2022/01/10 05:18:34;;;;;;;6.85;4.95;;;;;;;0.95;99.06055;94780.44;;;;
2022/01/10 05:19:34;;;;;;;6.85;4.95;;;;;;;0.95;99.06055;94780.44;;;;
2022/01/10 05:20:35;;;;;;;6.849999;5.1;;;;;;;0.93;99.0332;94799.73;;;;
2022/01/10 05:21:35;;;;;;;6.849999;5.1;;;;;;;0.93;99.0332;94799.73;;;;
2022/01/10 05:22:36;;;;;;;6.849999;5.1;;;;;;;0.93;99.0332;94799.73;;;;
2022/01/10 05:23:37;;;;;;;6.849999;5.1;;;;;;;0.93;99.0332;94799.73;;;;
2022/01/10 05:24:38;;;;;;;6.849999;5.1;;;;;;;0.93;99.0332;94799.73;;;;
2022/01/10 05:25:40;;;;;;;6.849999;5.1;;;;;;;0.93;99.0332;94799.73;;;;
2022/01/10 05:26:41;;;;;;;6.849999;5.1;;;;;;;0.93;99.0332;94799.73;;;;
2022/01/10 05:27:41;;;;;;;6.849999;5.1;;;;;;;0.93;99.0332;94799.73;;;;
2022/01/10 05:28:42;;;;;;;6.849999;5.1;;;;;;;0.93;99.0332;94799.73;;;;
2022/01/10 05:29:42;;;;;;;6.849999;5.1;;;;;;;0.93;99.0332;94799.73;;;;
2022/01/10 05:30:43;;;;;;;6.849999;5.1;;;;;;;0.93;99.0332;94799.73;;;;
2022/01/10 05:31:44;;;;;;;9.900001;6.400001;;;;;;;0.93;99.41797;94805.97;;;;
2022/01/10 05:32:45;;;;;;;9.900001;6.400001;;;;;;;0.93;99.41797;94805.97;;;;
2022/01/10 05:33:45;;;;;;;9.900001;6.400001;;;;;;;0.93;99.41797;94805.97;;;;
2022/01/10 05:34:46;;;;;;;9.900001;6.400001;;;;;;;0.93;99.41797;94805.97;;;;
2022/01/10 05:35:46;;;;;;;9.900001;6.400001;;;;;;;0.93;99.41797;94805.97;;;;
2022/01/10 05:36:47;;;;;;;9.900001;6.400001;;;;;;;0.93;99.41797;94805.97;;;;
2022/01/10 05:37:47;;;;;;;9.900001;6.400001;;;;;;;0.93;99.41797;94805.97;;;;
2022/01/10 05:38:48;;;;;;;9.900001;6.400001;;;;;;;0.93;99.41797;94805.97;;;;
2022/01/10 05:39:48;;;;;;;9.900001;6.400001;;;;;;;0.93;99.41797;94805.97;;;;
2022/01/10 05:40:49;;;;;;;9.900001;6.400001;;;;;;;0.93;99.41797;94805.97;;;;
2022/01/10 05:41:49;;;;;;;9.900001;6.400001;;;;;;;0.93;99.41797;94805.97;;;;
2022/01/10 05:42:50;;;;;;;9.200001;5.700001;;;;;;;0.9;99.70117;94824.04;;;;
2022/01/10 05:43:51;;;;;;;9.200001;5.700001;;;;;;;0.9;99.70117;94824.04;;;;
2022/01/10 05:44:51;;;;;;;9.200001;5.700001;;;;;;;0.9;99.70117;94824.04;;;;
2022/01/10 05:45:52;;;;;;;9.200001;5.700001;;;;;;;0.9;99.70117;94824.04;;;;
2022/01/10 05:46:53;;;;;;;9.200001;5.700001;;;;;;;0.9;99.70117;94824.04;;;;
2022/01/10 05:47:54;;;;;;;9.200001;5.700001;;;;;;;0.9;99.70117;94824.04;;;;
2022/01/10 05:49:00;;;;;;;9.200001;5.700001;;;;;;;0.9;99.70117;94824.04;;;;
2022/01/10 05:50:03;;;;;;;9.200001;5.700001;;;;;;;0.9;99.70117;94824.04;;;;
2022/01/10 05:51:05;;;;;;;9.200001;5.700001;;;;;;;0.9;99.70117;94824.04;;;;
2022/01/10 05:52:05;;;;;;;9.200001;5.700001;;;;;;;0.9;99.70117;94824.04;;;;
2022/01/10 05:53:06;;;;;;;11.15;6.55;;;;;;;0.89;100;94825.87;;;;
2022/01/10 05:54:07;;;;;;;11.15;6.55;;;;;;;0.89;100;94825.87;;;;
2022/01/10 05:55:07;;;;;;;11.15;6.55;;;;;;;0.89;100;94825.87;;;;
2022/01/10 05:56:09;;;;;;;11.15;6.55;;;;;;;0.89;100;94825.87;;;;